Time;durP1;ratioP1;P1;durP2;ratioP2;P2;SDS_P1;SDS_P2;PMS_P1;PMS_P2;Temp;Humidity;BMP_temperature;BMP_pressure;BME280_temperature;BME280_humidity;BME280_pressure;Samples;Min_cycle;Max_cycle;Signal;HPM_P1;HPM_P2
2021/05/30 08:28:46;;;;;;;7.85;7.05;;;21.30;93.40;;;;;;5065958;28;20368;-68
2021/05/30 08:31:12;;;;;;;7.63;6.82;;;21.30;93.70;;;;;;5079430;28;20054;-69
2021/05/30 08:33:37;;;;;;;7.47;6.60;;;21.60;93.70;;;;;;5076818;28;20052;-64
2021/05/30 08:36:03;;;;;;;14.20;6.82;;;21.60;93.50;;;;;;5067454;28;20028;-71
2021/05/30 08:38:29;;;;;;;7.65;6.07;;;21.80;93.30;;;;;;5070531;28;20028;-67
2021/05/30 08:40:55;;;;;;;6.90;5.90;;;21.90;93.50;;;;;;5067521;28;20020;-69
2021/05/30 08:43:21;;;;;;;8.20;6.22;;;22.00;93.30;;;;;;5066540;28;20087;-70
2021/05/30 08:45:47;;;;;;;6.75;6.05;;;22.30;93.00;;;;;;5069544;28;20036;-69
2021/05/30 08:48:12;;;;;;;6.43;5.85;;;22.60;92.70;;;;;;5081617;28;20484;-69
2021/05/30 08:50:38;;;;;;;7.93;5.72;;;22.60;92.70;;;;;;5069560;28;20090;-69
2021/05/30 08:53:05;;;;;;;8.27;6.00;;;22.80;92.40;;;;;;5066875;28;20032;-69
2021/05/30 08:55:31;;;;;;;13.05;6.00;;;22.90;92.70;;;;;;5066702;28;20473;-67
2021/05/30 08:57:57;;;;;;;9.02;6.00;;;22.90;92.70;;;;;;5067105;28;20040;-67
2021/05/30 09:00:28;;;;;;;8.48;5.93;;;23.00;92.30;;;;;;5066684;28;20017;-68
2021/05/30 09:03:14;;;;;;;6.70;5.28;;;23.10;92.10;;;;;;5067528;28;20068;-65
2021/05/30 09:05:41;;;;;;;6.57;5.82;;;23.10;92.00;;;;;;5048012;28;20033;-70
2021/05/30 09:08:08;;;;;;;5.68;5.13;;;22.70;92.20;;;;;;5047964;28;20433;-69
2021/05/30 09:10:34;;;;;;;6.50;5.47;;;22.70;92.40;;;;;;5066969;28;20036;-68
2021/05/30 09:13:07;;;;;;;7.63;5.38;;;22.80;92.60;;;;;;5067785;28;20037;-66
2021/05/30 09:18:34;;;;;;;6.43;5.63;;;22.90;92.50;;;;;;5037784;28;20037;-65
2021/05/30 09:21:01;;;;;;;8.05;5.47;;;22.80;92.20;;;;;;5083061;28;20025;-68
2021/05/30 09:23:33;;;;;;;7.25;5.60;;;22.70;92.30;;;;;;5077320;28;20051;-70
2021/05/30 09:26:25;;;;;;;7.70;5.80;;;22.70;92.40;;;;;;5063306;28;20032;-68
2021/05/30 09:29:11;;;;;;;6.03;5.43;;;23.20;92.00;;;;;;5066548;28;20053;-67
2021/05/30 09:31:57;;;;;;;6.57;5.97;;;23.30;92.00;;;;;;5065997;28;20032;-67
2021/05/30 09:34:30;;;;;;;10.48;5.70;;;23.20;91.80;;;;;;5067099;28;20032;-70
2021/05/30 09:36:57;;;;;;;6.50;5.57;;;23.30;91.80;;;;;;5063600;28;20025;-69
2021/05/30 09:39:40;;;;;;;7.80;5.25;;;23.20;92.00;;;;;;5063041;28;20473;-69
2021/05/30 09:42:36;;;;;;;14.45;5.45;;;23.40;92.10;;;;;;5064154;28;20027;-70
2021/05/30 09:45:08;;;;;;;7.22;4.93;;;23.90;91.60;;;;;;5072516;28;20040;-69
2021/05/30 09:47:35;;;;;;;9.60;5.18;;;24.10;91.40;;;;;;5059186;28;20041;-65
2021/05/30 09:50:06;;;;;;;5.38;4.78;;;24.30;91.30;;;;;;5064409;28;20496;-68
2021/05/30 09:52:37;;;;;;;4.88;4.35;;;24.70;91.00;;;;;;5073513;28;20530;-68
2021/05/30 09:55:17;;;;;;;6.38;4.78;;;24.20;90.90;;;;;;5058993;28;20029;-67
2021/05/30 09:58:09;;;;;;;5.88;5.28;;;23.70;91.40;;;;;;5069103;28;20052;-68
2021/05/30 10:00:35;;;;;;;6.97;5.30;;;23.60;91.60;;;;;;5049154;28;20025;-66
2021/05/30 10:03:02;;;;;;;6.63;5.93;;;23.90;91.30;;;;;;5052709;28;20468;-66
2021/05/30 10:05:28;;;;;;;5.85;5.28;;;23.80;91.30;;;;;;5051764;28;20036;-65
2021/05/30 10:07:54;;;;;;;7.30;4.63;;;23.90;91.30;;;;;;5052264;28;20400;-63
2021/05/30 10:10:20;;;;;;;6.45;4.80;;;23.80;91.80;;;;;;5051840;28;20025;-64
2021/05/30 10:12:47;;;;;;;6.75;5.47;;;23.80;91.60;;;;;;5052519;28;20036;-65
2021/05/30 10:15:13;;;;;;;6.50;5.07;;;23.70;91.80;;;;;;5053698;28;20029;-67
2021/05/30 10:17:41;;;;;;;6.97;5.68;;;23.80;91.70;;;;;;5062487;28;20033;-68
2021/05/30 10:20:11;;;;;;;7.20;6.18;;;23.90;91.70;;;;;;5057576;28;20123;-68
2021/05/30 10:22:40;;;;;;;6.80;6.10;;;23.70;91.70;;;;;;5051303;28;20040;-68
2021/05/30 10:25:06;;;;;;;7.55;6.80;;;23.50;91.90;;;;;;5052240;28;20029;-69
2021/05/30 10:27:32;;;;;;;6.65;6.05;;;23.50;91.90;;;;;;5052139;28;20457;-68
2021/05/30 10:30:06;;;;;;;7.50;6.55;;;23.60;92.00;;;;;;5055042;28;20053;-67
2021/05/30 10:32:33;;;;;;;8.70;6.93;;;23.50;91.90;;;;;;5048906;28;20025;-67
2021/05/30 10:35:20;;;;;;;6.78;6.10;;;23.70;91.80;;;;;;5052941;28;20156;-67
2021/05/30 10:37:57;;;;;;;8.15;6.68;;;23.80;91.60;;;;;;5052140;28;20029;-70
2021/05/30 10:40:25;;;;;;;9.68;7.32;;;23.70;91.70;;;;;;5056455;28;20426;-68
2021/05/30 10:43:09;;;;;;;8.25;6.50;;;23.70;91.80;;;;;;5048304;28;20096;-67
2021/05/30 10:45:36;;;;;;;;;;;23.70;91.70;;;;;;5070015;28;20024;-66
2021/05/30 10:48:04;;;;;;;7.70;6.88;;;23.80;91.60;;;;;;5061609;28;19915;-68
2021/05/30 10:50:36;;;;;;;8.80;7.57;;;23.90;91.50;;;;;;5067808;28;20358;-68
2021/05/30 10:53:02;;;;;;;19.00;9.75;;;24.00;91.50;;;;;;5069180;28;20027;-68
2021/05/30 10:55:30;;;;;;;14.05;8.15;;;24.00;91.70;;;;;;5053080;28;20079;-65
2021/05/30 10:57:56;;;;;;;9.48;7.95;;;23.90;91.50;;;;;;5052592;28;20037;-67
2021/05/30 11:00:24;;;;;;;11.82;7.93;;;24.20;91.40;;;;;;5064074;28;20484;-69
2021/05/30 11:03:03;;;;;;;10.32;8.43;;;24.10;91.40;;;;;;5052239;28;20106;-69
2021/05/30 11:05:50;;;;;;;10.38;9.18;;;24.10;91.40;;;;;;5051376;28;20366;-69
2021/05/30 11:08:31;;;;;;;12.55;7.88;;;24.10;91.50;;;;;;5035625;28;20500;-69
2021/05/30 11:11:29;;;;;;;10.00;8.40;;;24.30;91.30;;;;;;5051823;28;20572;-68
2021/05/30 11:13:58;;;;;;;13.13;8.27;;;24.60;91.40;;;;;;5047580;28;20037;-69
2021/05/30 11:16:28;;;;;;;10.88;8.32;;;24.80;90.80;;;;;;5068206;28;20419;-70
2021/05/30 11:19:02;;;;;;;10.88;8.75;;;24.60;90.80;;;;;;5052438;28;20032;-70
2021/05/30 11:21:32;;;;;;;11.88;9.75;;;24.60;91.20;;;;;;5057019;28;20423;-65
2021/05/30 11:24:00;;;;;;;10.80;8.93;;;24.60;91.20;;;;;;5051984;28;20032;-66
2021/05/30 11:26:26;;;;;;;12.32;10.10;;;24.60;91.30;;;;;;5054722;28;20480;-70
2021/05/30 11:28:52;;;;;;;11.43;9.02;;;24.50;91.50;;;;;;5062308;28;20120;-68
2021/05/30 11:31:19;;;;;;;13.30;9.63;;;25.00;91.20;;;;;;5058823;28;20030;-70
2021/05/30 11:34:01;;;;;;;12.50;10.18;;;24.50;91.40;;;;;;5070510;28;20029;-70
2021/05/30 11:36:36;;;;;;;11.10;8.95;;;24.20;91.80;;;;;;5067807;28;20036;-67
2021/05/30 11:39:13;;;;;;;12.18;9.10;;;23.90;92.50;;;;;;5056697;28;20152;-68
2021/05/30 11:41:52;;;;;;;12.75;9.57;;;23.80;92.40;;;;;;5044794;28;20098;-69
2021/05/30 11:44:20;;;;;;;14.23;8.77;;;23.60;92.40;;;;;;5054416;28;20495;-69
2021/05/30 11:46:54;;;;;;;11.48;8.63;;;23.60;92.50;;;;;;5071557;28;20472;-69
2021/05/30 11:49:28;;;;;;;8.95;7.53;;;23.60;92.50;;;;;;5062387;28;20025;-69
2021/05/30 11:52:01;;;;;;;;;;;23.60;92.30;;;;;;5067723;28;20024;-68
2021/05/30 11:54:53;;;;;;;7.65;6.55;;;23.60;92.30;;;;;;5071077;28;19916;-68
2021/05/30 11:57:20;;;;;;;10.10;7.13;;;23.60;92.20;;;;;;5070063;28;20036;-66
2021/05/30 11:59:59;;;;;;;9.38;7.70;;;23.60;92.20;;;;;;5071161;28;20032;-67
2021/05/30 12:02:33;;;;;;;13.30;9.13;;;23.70;92.10;;;;;;5052311;28;20473;-67
2021/05/30 12:05:05;;;;;;;10.80;8.25;;;23.70;92.10;;;;;;5062187;28;20426;-67
2021/05/30 12:07:31;;;;;;;8.65;7.70;;;23.80;92.00;;;;;;5071405;28;20054;-68
2021/05/30 12:10:03;;;;;;;9.63;7.57;;;23.80;92.00;;;;;;5069834;28;20111;-67
2021/05/30 12:12:35;;;;;;;10.60;8.50;;;23.80;92.00;;;;;;5061818;28;20025;-66
2021/05/30 12:15:04;;;;;;;9.00;7.35;;;23.80;91.90;;;;;;5057715;28;20017;-65
2021/05/30 12:17:30;;;;;;;9.73;7.97;;;23.90;92.00;;;;;;5054216;28;20067;-65
2021/05/30 12:19:56;;;;;;;7.90;7.10;;;23.80;92.10;;;;;;5050179;28;20028;-65
2021/05/30 12:22:29;;;;;;;8.88;7.32;;;23.80;91.90;;;;;;5049217;28;20053;-65
2021/05/30 12:24:55;;;;;;;8.18;7.18;;;23.80;91.80;;;;;;5051571;28;20532;-66
2021/05/30 12:27:22;;;;;;;8.23;7.30;;;23.80;92.00;;;;;;5050744;28;20175;-65
2021/05/30 12:29:50;;;;;;;9.63;8.25;;;23.80;91.90;;;;;;5051008;28;20439;-65
2021/05/30 12:32:17;;;;;;;8.88;7.88;;;23.90;91.90;;;;;;5051150;28;20028;-65
2021/05/30 12:34:43;;;;;;;8.93;7.78;;;23.90;91.80;;;;;;5049942;28;20032;-66
2021/05/30 12:37:08;;;;;;;9.88;8.63;;;23.90;91.90;;;;;;5050087;28;20029;-66
2021/05/30 12:39:34;;;;;;;9.60;8.20;;;23.90;91.80;;;;;;5050780;28;20385;-68
2021/05/30 12:42:12;;;;;;;7.65;6.95;;;23.90;91.90;;;;;;5050865;28;20049;-69
2021/05/30 12:44:51;;;;;;;7.20;6.50;;;23.80;91.70;;;;;;5050693;28;20040;-68
2021/05/30 12:47:26;;;;;;;7.40;6.65;;;23.80;91.80;;;;;;5050998;28;20029;-68
2021/05/30 12:49:53;;;;;;;6.90;6.18;;;23.70;91.90;;;;;;5046307;28;20412;-69
2021/05/30 12:52:19;;;;;;;7.13;6.00;;;23.70;92.30;;;;;;5050769;28;20044;-68
2021/05/30 12:54:59;;;;;;;7.28;6.00;;;23.70;91.90;;;;;;5050552;28;20104;-68
2021/05/30 12:57:46;;;;;;;7.38;5.97;;;23.70;91.90;;;;;;5051068;28;20501;-68
2021/05/30 13:00:27;;;;;;;6.50;5.90;;;23.70;91.90;;;;;;5049629;28;20032;-69
2021/05/30 13:03:11;;;;;;;8.10;6.18;;;23.60;92.20;;;;;;5052921;28;20035;-68
2021/05/30 13:05:39;;;;;;;7.78;6.18;;;23.70;91.90;;;;;;5052300;28;20400;-68
2021/05/30 13:08:18;;;;;;;6.78;6.03;;;23.70;92.00;;;;;;5050947;28;20029;-70
2021/05/30 13:10:50;;;;;;;8.52;6.18;;;23.70;92.00;;;;;;5050377;28;20366;-69
2021/05/30 13:13:33;;;;;;;6.80;6.13;;;23.90;91.90;;;;;;5050767;28;20029;-68
2021/05/30 13:16:00;;;;;;;8.27;6.28;;;24.10;91.70;;;;;;5050476;28;20039;-68
2021/05/30 13:18:31;;;;;;;7.45;6.40;;;24.10;91.60;;;;;;5051996;28;20087;-69
2021/05/30 13:20:58;;;;;;;6.35;5.75;;;24.20;91.90;;;;;;5050728;28;20029;-68
2021/05/30 13:23:30;;;;;;;6.82;6.13;;;24.50;91.50;;;;;;5053460;28;20029;-68
2021/05/30 13:26:03;;;;;;;8.13;6.22;;;24.60;91.50;;;;;;5054114;28;20079;-67
2021/05/30 13:28:34;;;;;;;6.20;5.60;;;24.80;91.30;;;;;;5053273;28;20039;-67
2021/05/30 13:31:08;;;;;;;5.95;5.38;;;24.90;91.10;;;;;;5053738;28;20131;-67
2021/05/30 13:33:39;;;;;;;6.30;5.32;;;24.90;91.30;;;;;;5052598;28;20481;-68
2021/05/30 13:36:06;;;;;;;6.40;5.72;;;24.90;91.20;;;;;;5042973;28;20021;-66
2021/05/30 13:38:34;;;;;;;6.10;5.55;;;24.90;91.10;;;;;;5052745;28;20033;-67
2021/05/30 13:41:00;;;;;;;6.38;5.78;;;24.90;91.20;;;;;;5053835;28;20029;-67
2021/05/30 13:43:27;;;;;;;5.75;5.07;;;25.40;91.00;;;;;;5054305;28;20055;-67
2021/05/30 13:45:53;;;;;;;7.13;5.45;;;25.10;90.90;;;;;;5055596;28;20029;-66
2021/05/30 13:48:20;;;;;;;6.68;5.40;;;25.10;91.20;;;;;;5053594;28;20049;-67
2021/05/30 13:51:00;;;;;;;6.22;5.30;;;24.70;91.30;;;;;;5053071;28;20484;-66
2021/05/30 13:53:28;;;;;;;7.80;5.32;;;24.50;91.90;;;;;;5043300;28;20028;-65
2021/05/30 13:55:54;;;;;;;5.95;5.22;;;24.40;91.60;;;;;;5053843;28;20035;-67
2021/05/30 13:58:19;;;;;;;7.47;4.90;;;24.30;91.80;;;;;;5052891;28;20037;-67
2021/05/30 14:00:45;;;;;;;7.13;5.30;;;24.30;91.80;;;;;;5053584;28;20028;-67
2021/05/30 14:03:11;;;;;;;5.80;5.20;;;24.30;91.80;;;;;;5053790;28;20552;-67
2021/05/30 14:05:36;;;;;;;11.45;5.28;;;24.60;91.60;;;;;;5053246;28;20070;-69
2021/05/30 14:08:02;;;;;;;6.80;5.05;;;25.00;91.50;;;;;;5053529;28;20120;-68
2021/05/30 14:10:28;;;;;;;6.70;5.20;;;25.40;90.80;;;;;;5053443;28;20024;-65
2021/05/30 14:12:53;;;;;;;11.90;5.00;;;25.40;90.80;;;;;;5052479;28;20029;-65
2021/05/30 14:15:19;;;;;;;8.82;4.80;;;25.30;90.90;;;;;;5053025;28;20024;-66
2021/05/30 14:17:45;;;;;;;9.38;4.90;;;25.20;90.90;;;;;;5053162;28;20045;-66
2021/05/30 14:20:11;;;;;;;6.85;4.50;;;25.10;90.90;;;;;;5053400;28;20488;-65
2021/05/30 14:22:37;;;;;;;6.55;4.85;;;25.20;90.80;;;;;;5052894;28;20040;-65
2021/05/30 14:25:08;;;;;;;8.05;4.45;;;25.40;90.60;;;;;;5053224;28;20025;-67
2021/05/30 14:27:34;;;;;;;5.05;4.22;;;25.50;90.60;;;;;;5052409;28;20064;-66
2021/05/30 14:30:00;;;;;;;5.93;4.18;;;25.40;90.50;;;;;;5052743;28;20033;-64
2021/05/30 14:32:26;;;;;;;4.60;4.20;;;25.30;90.50;;;;;;5053340;28;20029;-64
2021/05/30 14:34:51;;;;;;;5.38;4.38;;;25.20;90.70;;;;;;5052113;28;20025;-65
2021/05/30 14:37:17;;;;;;;4.90;4.40;;;25.10;91.00;;;;;;5052969;28;20395;-63
2021/05/30 14:39:43;;;;;;;5.28;3.92;;;25.10;90.90;;;;;;5052651;28;20025;-64
2021/05/30 14:42:09;;;;;;;4.90;4.40;;;25.10;91.00;;;;;;5052941;28;20078;-64
2021/05/30 14:44:35;;;;;;;5.65;4.55;;;25.00;91.10;;;;;;5051992;28;20041;-65
2021/05/30 14:47:01;;;;;;;5.53;4.88;;;25.20;91.10;;;;;;5053070;28;20376;-67
2021/05/30 14:49:26;;;;;;;7.68;5.07;;;25.40;90.80;;;;;;5051803;28;20032;-68
2021/05/30 14:51:52;;;;;;;5.53;4.50;;;25.10;91.20;;;;;;5052200;28;20104;-68
2021/05/30 14:54:18;;;;;;;5.32;4.18;;;25.00;90.80;;;;;;5052699;28;20032;-67
2021/05/30 14:56:43;;;;;;;4.10;3.70;;;25.10;91.30;;;;;;5052354;28;20021;-65
2021/05/30 14:59:09;;;;;;;5.55;4.20;;;25.10;91.50;;;;;;5052375;28;20033;-66
2021/05/30 15:01:38;;;;;;;6.38;4.05;;;25.30;91.40;;;;;;5052368;28;20154;-65
2021/05/30 15:04:04;;;;;;;5.93;3.90;;;25.40;91.20;;;;;;5052488;28;20040;-69
2021/05/30 15:06:31;;;;;;;4.25;3.85;;;25.40;91.10;;;;;;5051665;28;20020;-69
2021/05/30 15:08:57;;;;;;;6.15;3.80;;;25.40;91.00;;;;;;5052118;28;20362;-68
2021/05/30 15:11:22;;;;;;;6.05;3.97;;;25.50;90.90;;;;;;5052155;28;20029;-69
2021/05/30 15:13:48;;;;;;;4.80;3.78;;;25.50;90.90;;;;;;5052128;28;20479;-69
2021/05/30 15:16:14;;;;;;;6.20;3.80;;;25.50;90.80;;;;;;5051808;28;20112;-69
2021/05/30 15:18:39;;;;;;;5.80;3.95;;;25.60;90.80;;;;;;5047470;28;20048;-69
2021/05/30 15:21:07;;;;;;;4.57;3.70;;;26.00;90.50;;;;;;5052296;28;20519;-69
2021/05/30 15:23:33;;;;;;;4.55;3.42;;;25.70;90.60;;;;;;5071333;28;20078;-69
2021/05/30 15:26:01;;;;;;;4.13;3.72;;;25.40;90.40;;;;;;5056535;28;20087;-69
2021/05/30 15:28:27;;;;;;;4.20;3.80;;;25.40;90.40;;;;;;5052043;28;20087;-70
2021/05/30 15:30:54;;;;;;;3.88;3.47;;;25.20;90.60;;;;;;5051981;28;20025;-69
2021/05/30 15:33:21;;;;;;;3.90;3.38;;;25.30;90.50;;;;;;5051961;28;20032;-67
2021/05/30 15:35:47;;;;;;;4.38;3.30;;;25.30;90.40;;;;;;5050950;28;20567;-70
2021/05/30 15:38:15;;;;;;;3.90;3.30;;;25.50;90.10;;;;;;5051039;28;20119;-69
2021/05/30 15:40:41;;;;;;;3.85;3.45;;;25.60;89.70;;;;;;5051616;28;20465;-71
2021/05/30 15:43:07;;;;;;;4.53;2.97;;;25.50;89.10;;;;;;5051671;28;20044;-71
2021/05/30 15:45:33;;;;;;;3.95;3.33;;;25.50;89.30;;;;;;5050271;28;20017;-69
2021/05/30 15:48:00;;;;;;;5.25;3.55;;;25.50;88.80;;;;;;5050705;28;20029;-70
2021/05/30 15:50:26;;;;;;;4.22;3.30;;;25.40;88.90;;;;;;5051042;28;20079;-71
2021/05/30 15:52:55;;;;;;;3.40;3.10;;;25.30;88.20;;;;;;5049004;28;20051;-71
2021/05/30 15:55:22;;;;;;;3.42;3.00;;;25.20;88.50;;;;;;5049931;28;20420;-69
2021/05/30 15:57:48;;;;;;;4.95;3.00;;;25.30;88.40;;;;;;5051069;28;20509;-70
2021/05/30 16:00:14;;;;;;;4.20;3.75;;;25.30;88.50;;;;;;5050358;28;20017;-70
2021/05/30 16:02:40;;;;;;;3.30;3.00;;;25.20;88.10;;;;;;5050450;28;20086;-69
2021/05/30 16:05:08;;;;;;;3.35;2.90;;;25.30;88.30;;;;;;5051290;28;20033;-69
2021/05/30 16:07:34;;;;;;;3.78;2.90;;;25.20;88.20;;;;;;5051274;28;20032;-68
2021/05/30 16:10:00;;;;;;;4.18;2.90;;;25.30;88.00;;;;;;5051211;28;20017;-70
2021/05/30 16:12:26;;;;;;;3.30;3.00;;;25.30;87.70;;;;;;5051657;28;20535;-70
2021/05/30 16:14:52;;;;;;;3.13;2.85;;;25.20;87.70;;;;;;5051018;28;20047;-69
2021/05/30 16:17:18;;;;;;;3.78;3.05;;;25.20;87.70;;;;;;5051284;28;20041;-70
2021/05/30 16:19:44;;;;;;;3.95;3.00;;;25.20;87.70;;;;;;5050692;28;20017;-70
2021/05/30 16:22:10;;;;;;;3.72;3.20;;;25.10;87.40;;;;;;5050923;28;20052;-68
2021/05/30 16:24:35;;;;;;;3.17;2.88;;;25.20;87.50;;;;;;5050955;28;20021;-70
2021/05/30 16:27:02;;;;;;;3.13;2.80;;;25.30;87.40;;;;;;5051148;28;20029;-70
2021/05/30 16:29:30;;;;;;;3.67;3.03;;;25.30;87.20;;;;;;5051985;28;20036;-69
2021/05/30 16:31:56;;;;;;;3.78;3.10;;;25.30;87.00;;;;;;5051389;28;20139;-69
2021/05/30 16:34:22;;;;;;;4.05;3.20;;;25.30;87.20;;;;;;5051064;28;20029;-70
2021/05/30 16:36:47;;;;;;;3.28;2.85;;;25.40;87.00;;;;;;5050683;28;20519;-67
2021/05/30 16:39:19;;;;;;;4.13;3.00;;;25.40;86.60;;;;;;5051080;28;20033;-68
2021/05/30 16:41:46;;;;;;;3.65;3.10;;;25.50;86.50;;;;;;5050680;28;20075;-68
2021/05/30 16:44:12;;;;;;;3.30;3.00;;;25.40;86.50;;;;;;5051019;28;20032;-68
2021/05/30 16:46:38;;;;;;;3.40;3.10;;;25.40;86.50;;;;;;5050625;28;20473;-68
2021/05/30 16:49:03;;;;;;;3.67;3.15;;;25.40;86.60;;;;;;5051956;28;20087;-67
2021/05/30 16:51:30;;;;;;;4.47;3.15;;;25.50;86.60;;;;;;5054181;28;20029;-65
2021/05/30 16:53:55;;;;;;;2.92;2.63;;;25.50;86.40;;;;;;5053949;28;20082;-66
2021/05/30 16:56:21;;;;;;;3.40;2.90;;;25.30;86.20;;;;;;5054909;28;20020;-65
2021/05/30 16:58:46;;;;;;;4.18;3.05;;;25.30;86.00;;;;;;5053263;28;20041;-63
2021/05/30 17:01:12;;;;;;;3.40;3.10;;;25.40;85.80;;;;;;5054422;28;20103;-64
2021/05/30 17:03:38;;;;;;;3.47;3.17;;;25.40;86.10;;;;;;5054496;28;20029;-64
2021/05/30 17:06:04;;;;;;;3.08;2.80;;;25.40;85.70;;;;;;5054515;28;20032;-64
2021/05/30 17:08:29;;;;;;;3.30;3.00;;;25.90;85.30;;;;;;5054491;28;20032;-65
2021/05/30 17:10:55;;;;;;;3.35;3.05;;;26.30;84.70;;;;;;5054805;28;20029;-63
2021/05/30 17:13:21;;;;;;;2.88;2.67;;;26.30;84.40;;;;;;5054447;28;20021;-63
2021/05/30 17:15:55;;;;;;;3.22;2.92;;;26.50;84.50;;;;;;5052454;28;20485;-63
2021/05/30 17:18:21;;;;;;;4.10;2.95;;;26.00;84.80;;;;;;5051733;28;20049;-63
2021/05/30 17:20:48;;;;;;;3.13;2.83;;;25.70;85.80;;;;;;5052628;28;20024;-64
2021/05/30 17:23:14;;;;;;;3.22;2.92;;;25.70;86.00;;;;;;5043592;28;20021;-63
2021/05/30 17:25:41;;;;;;;4.05;3.10;;;25.80;86.30;;;;;;5052813;28;20025;-64
2021/05/30 17:28:07;;;;;;;3.35;3.03;;;25.70;86.10;;;;;;5052895;28;20449;-63
2021/05/30 17:30:34;;;;;;;3.58;3.28;;;26.10;85.50;;;;;;5075848;28;20025;-67
2021/05/30 17:33:00;;;;;;;3.42;3.10;;;26.20;85.10;;;;;;5052851;28;20094;-66
2021/05/30 17:35:26;;;;;;;4.22;2.85;;;26.20;85.70;;;;;;5053066;28;20078;-66
2021/05/30 17:37:52;;;;;;;3.40;3.10;;;26.30;85.20;;;;;;5052687;28;20063;-64
2021/05/30 17:40:18;;;;;;;3.40;3.10;;;26.60;85.30;;;;;;5053760;28;20511;-66
2021/05/30 17:42:43;;;;;;;3.22;2.92;;;26.00;86.00;;;;;;5051885;28;20025;-66
2021/05/30 17:45:10;;;;;;;5.45;3.42;;;26.00;85.90;;;;;;5053941;28;20033;-66
2021/05/30 17:47:36;;;;;;;3.30;2.95;;;25.80;86.00;;;;;;5061080;28;20156;-65
2021/05/30 17:50:03;;;;;;;3.72;3.30;;;25.70;86.10;;;;;;5058887;28;20103;-66
2021/05/30 17:52:29;;;;;;;4.47;3.30;;;25.70;85.90;;;;;;5065356;28;20047;-64
2021/05/30 17:54:55;;;;;;;3.70;3.40;;;25.50;86.80;;;;;;5065883;28;20028;-65
2021/05/30 17:57:21;;;;;;;4.20;3.22;;;25.50;86.10;;;;;;5056795;28;20108;-66
2021/05/30 17:59:47;;;;;;;3.90;3.10;;;25.30;86.30;;;;;;5065481;28;20111;-65
2021/05/30 18:02:13;;;;;;;4.07;2.80;;;25.10;87.30;;;;;;5060036;28;20013;-64
2021/05/30 18:04:39;;;;;;;4.07;3.20;;;25.10;86.70;;;;;;5062704;28;20032;-67
2021/05/30 18:07:08;;;;;;;3.03;2.72;;;24.90;87.20;;;;;;5060031;28;20461;-66
2021/05/30 18:09:35;;;;;;;3.70;3.38;;;24.70;87.30;;;;;;5066783;28;20492;-66
2021/05/30 18:12:01;;;;;;;4.32;2.92;;;24.60;87.60;;;;;;5055208;28;20032;-66
2021/05/30 18:14:28;;;;;;;3.55;3.08;;;24.60;87.80;;;;;;5054958;28;20039;-66
2021/05/30 18:16:56;;;;;;;3.65;3.00;;;24.40;88.00;;;;;;5063092;28;20029;-64
2021/05/30 18:19:23;;;;;;;3.38;2.80;;;24.40;88.10;;;;;;5052703;28;20033;-66
2021/05/30 18:21:50;;;;;;;3.30;3.00;;;24.30;88.30;;;;;;5049810;28;20025;-64
2021/05/30 18:24:19;;;;;;;3.72;3.38;;;24.30;88.30;;;;;;5053591;28;20061;-64
2021/05/30 18:26:46;;;;;;;3.47;3.05;;;24.30;88.70;;;;;;5056466;28;20036;-67
2021/05/30 18:29:13;;;;;;;3.55;3.13;;;24.20;88.40;;;;;;5056834;28;20791;-64
2021/05/30 18:31:39;;;;;;;3.10;2.80;;;24.20;88.50;;;;;;5058255;28;20040;-63
2021/05/30 18:34:05;;;;;;;3.55;3.25;;;24.10;88.40;;;;;;5061761;28;20056;-63
2021/05/30 18:36:33;;;;;;;3.97;3.35;;;24.10;88.50;;;;;;5057047;28;20088;-64
2021/05/30 18:38:59;;;;;;;4.10;3.65;;;24.10;88.90;;;;;;5069486;28;20099;-64
2021/05/30 18:41:25;;;;;;;5.13;3.63;;;24.00;88.90;;;;;;5059795;28;20017;-64
2021/05/30 18:43:52;;;;;;;4.90;3.55;;;24.00;88.80;;;;;;5062429;28;20029;-63
2021/05/30 18:46:19;;;;;;;3.70;3.25;;;24.00;88.90;;;;;;5064232;28;20029;-63
2021/05/30 18:48:45;;;;;;;5.18;3.30;;;24.00;89.10;;;;;;5053235;28;20029;-63
2021/05/30 18:51:24;;;;;;;4.15;3.70;;;24.00;89.20;;;;;;5059690;28;20484;-64
2021/05/30 18:53:53;;;;;;;4.50;3.90;;;24.00;89.50;;;;;;5071229;28;20396;-61
2021/05/30 18:56:19;;;;;;;5.47;3.80;;;24.10;89.60;;;;;;5053489;28;20028;-63
2021/05/30 18:58:45;;;;;;;3.78;3.47;;;24.10;89.40;;;;;;5059160;28;20032;-63
2021/05/30 19:01:12;;;;;;;4.00;3.58;;;24.00;89.60;;;;;;5055904;28;20032;-64
2021/05/30 19:03:39;;;;;;;4.43;4.03;;;24.00;89.90;;;;;;5061430;28;20037;-63
2021/05/30 19:06:06;;;;;;;4.25;3.85;;;24.10;89.80;;;;;;5054214;28;20099;-62
2021/05/30 19:08:33;;;;;;;6.35;4.30;;;24.00;89.70;;;;;;5068447;28;20028;-62
2021/05/30 19:11:00;;;;;;;4.55;3.50;;;24.10;89.70;;;;;;5057381;28;20052;-61
2021/05/30 19:13:26;;;;;;;4.30;3.78;;;24.20;89.60;;;;;;5059639;28;20048;-61
2021/05/30 19:15:52;;;;;;;5.85;4.13;;;24.30;89.30;;;;;;5051475;28;20423;-61
2021/05/30 19:18:17;;;;;;;4.35;3.72;;;24.30;89.20;;;;;;5061325;28;20840;-63
2021/05/30 19:20:43;;;;;;;4.40;4.00;;;24.30;89.20;;;;;;5053595;28;20044;-62
2021/05/30 19:23:09;;;;;;;4.43;3.63;;;24.30;89.80;;;;;;5051133;28;20025;-64
2021/05/30 19:25:35;;;;;;;4.20;3.72;;;24.40;89.20;;;;;;5051028;28;20071;-64
2021/05/30 19:28:01;;;;;;;6.30;4.07;;;24.30;89.30;;;;;;5054428;28;20187;-62
2021/05/30 19:30:27;;;;;;;4.55;3.72;;;24.20;89.60;;;;;;5055873;28;20115;-61
2021/05/30 19:32:55;;;;;;;4.57;4.15;;;24.10;89.90;;;;;;5050010;28;20021;-63
2021/05/30 19:35:21;;;;;;;5.28;3.72;;;24.00;90.00;;;;;;5051517;28;20056;-61
2021/05/30 19:37:47;;;;;;;4.85;3.60;;;24.00;90.10;;;;;;5051625;28;20044;-61
2021/05/30 19:40:13;;;;;;;4.65;4.22;;;24.00;90.20;;;;;;5051613;28;20028;-62
2021/05/30 19:42:39;;;;;;;4.32;3.85;;;23.90;90.30;;;;;;5051369;28;20056;-61
2021/05/30 19:45:08;;;;;;;5.63;3.85;;;23.90;90.40;;;;;;5051896;28;20059;-61
2021/05/30 19:47:34;;;;;;;5.65;4.20;;;23.90;90.40;;;;;;5051114;28;20033;-64
2021/05/30 19:50:00;;;;;;;5.05;3.95;;;23.80;90.50;;;;;;5051571;28;20020;-62
2021/05/30 19:52:25;;;;;;;4.70;4.25;;;23.80;90.50;;;;;;5053265;28;20025;-61
2021/05/30 19:54:52;;;;;;;4.03;3.63;;;23.80;90.60;;;;;;5049981;28;20520;-61
2021/05/30 19:57:18;;;;;;;4.90;4.03;;;23.70;90.70;;;;;;5049962;28;20323;-63
2021/05/30 19:59:43;;;;;;;4.80;3.70;;;23.70;90.80;;;;;;5052383;28;20469;-64
2021/05/30 20:02:10;;;;;;;4.72;4.18;;;23.70;90.80;;;;;;5049396;28;20431;-64
2021/05/30 20:04:36;;;;;;;4.10;3.67;;;23.60;90.90;;;;;;5046970;28;20031;-65
2021/05/30 20:07:06;;;;;;;5.68;4.03;;;23.60;90.90;;;;;;5050124;28;20425;-61
2021/05/30 20:09:33;;;;;;;4.22;3.80;;;23.60;90.90;;;;;;5049029;28;20096;-66
2021/05/30 20:12:00;;;;;;;5.00;3.80;;;23.60;91.00;;;;;;5050478;28;20027;-64
2021/05/30 20:14:27;;;;;;;4.80;4.15;;;23.60;91.00;;;;;;5049918;28;20032;-64
2021/05/30 20:16:53;;;;;;;4.03;3.63;;;23.60;91.10;;;;;;5050565;28;20029;-64
2021/05/30 20:19:19;;;;;;;4.95;3.88;;;23.50;91.10;;;;;;5051302;28;20021;-65
2021/05/30 20:21:45;;;;;;;6.07;4.30;;;23.50;91.20;;;;;;5050163;28;20362;-63
2021/05/30 20:24:12;;;;;;;4.45;3.90;;;23.50;91.20;;;;;;5041715;28;20018;-64
2021/05/30 20:26:45;;;;;;;4.82;3.80;;;23.40;91.30;;;;;;5030809;28;20049;-64
